Time;durP1;ratioP1;P1;durP2;ratioP2;P2;SDS_P1;SDS_P2;PMS_P1;PMS_P2;Temp;Humidity;BMP_temperature;BMP_pressure;BME280_temperature;BME280_humidity;BME280_pressure;Samples;Min_cycle;Max_cycle;Signal;HPM_P1;HPM_P2
2022/09/16 00:05:23;;;;;;;0.90;0.30;;;12.50;99.90;;;;;;20850379;28;20048;-38
2022/09/16 00:15:24;;;;;;;1.65;0.60;;;12.50;99.90;;;;;;20866632;28;21179;-38
2022/09/16 00:25:25;;;;;;;4.85;1.08;;;12.50;99.90;;;;;;20854905;28;20127;-38
2022/09/16 00:35:26;;;;;;;3.92;1.10;;;12.40;99.90;;;;;;20850342;28;20059;-38
2022/09/16 00:45:30;;;;;;;1.50;0.30;;;12.30;99.90;;;;;;20854751;28;20204;-38
2022/09/16 00:55:33;;;;;;;0.68;0.17;;;12.10;99.90;;;;;;20856069;28;20082;-38
2022/09/16 01:05:36;;;;;;;9.60;0.50;;;12.10;99.90;;;;;;20840787;28;20456;-38
2022/09/16 01:15:47;;;;;;;1.02;0.30;;;12.10;99.90;;;;;;20844810;28;20061;-38
2022/09/16 01:26:17;;;;;;;1.52;0.20;;;12.20;99.90;;;;;;20826041;28;21921;-38
2022/09/16 01:36:43;;;;;;;0.60;0.20;;;12.10;99.90;;;;;;20826160;28;20048;-38
2022/09/16 01:46:58;;;;;;;1.50;0.30;;;12.00;99.90;;;;;;20824091;28;21848;-38
2022/09/16 01:57:20;;;;;;;1.00;0.30;;;11.90;99.90;;;;;;20836805;28;20425;-38
2022/09/16 02:07:27;;;;;;;1.70;0.90;;;11.90;99.90;;;;;;20836716;28;20603;-38
2022/09/16 02:17:31;;;;;;;1.17;0.60;;;12.00;99.90;;;;;;20835788;28;20061;-38
2022/09/16 02:27:35;;;;;;;1.63;0.60;;;12.00;99.90;;;;;;20833024;28;20132;-38
2022/09/16 02:37:45;;;;;;;5.15;0.70;;;12.10;99.90;;;;;;20836302;28;20290;-39
2022/09/16 02:48:12;;;;;;;1.17;0.32;;;11.90;99.90;;;;;;20831086;28;20306;-39
2022/09/16 02:58:13;;;;;;;1.00;0.38;;;11.90;99.90;;;;;;20836644;28;20415;-39
2022/09/16 03:08:14;;;;;;;0.30;0.20;;;11.80;99.90;;;;;;20834130;28;20153;-39
2022/09/16 03:18:50;;;;;;;0.43;0.15;;;11.70;99.90;;;;;;20844322;28;20068;-39
2022/09/16 03:28:57;;;;;;;2.38;1.33;;;11.70;99.90;;;;;;20834606;28;20705;-38
2022/09/16 03:39:00;;;;;;;0.97;0.40;;;11.80;99.90;;;;;;20842845;28;20095;-40
2022/09/16 03:49:01;;;;;;;0.65;0.45;;;11.90;99.90;;;;;;20848455;28;20033;-40
2022/09/16 03:59:02;;;;;;;1.00;0.25;;;11.80;99.90;;;;;;20853918;28;20079;-39
2022/09/16 04:09:05;;;;;;;1.02;0.17;;;11.70;99.90;;;;;;20852392;28;20043;-39
2022/09/16 04:19:06;;;;;;;1.33;0.20;;;11.70;99.90;;;;;;20853688;28;20174;-39
2022/09/16 04:29:07;;;;;;;1.88;0.30;;;11.60;99.90;;;;;;20843353;28;20230;-39
2022/09/16 04:39:11;;;;;;;1.60;0.30;;;11.50;99.90;;;;;;20838038;28;20061;-38
2022/09/16 04:49:12;;;;;;;0.20;0.20;;;11.60;99.90;;;;;;20836900;28;20120;-38
2022/09/16 04:59:13;;;;;;;0.35;0.20;;;11.70;99.90;;;;;;20831505;28;20545;-38
2022/09/16 05:09:14;;;;;;;2.97;0.65;;;11.50;99.90;;;;;;20836239;28;20536;-38
2022/09/16 05:19:15;;;;;;;0.77;0.20;;;11.30;99.90;;;;;;20837091;28;20136;-38
2022/09/16 05:29:16;;;;;;;3.58;0.20;;;11.30;99.90;;;;;;20837918;28;20122;-38
2022/09/16 05:39:17;;;;;;;1.88;0.22;;;11.20;99.90;;;;;;20840255;28;20123;-39
2022/09/16 05:49:19;;;;;;;1.08;0.28;;;11.10;99.90;;;;;;20836854;28;20803;-39
2022/09/16 05:59:21;;;;;;;0.85;0.22;;;11.00;99.90;;;;;;20849358;28;20156;-39
2022/09/16 06:09:24;;;;;;;1.63;0.30;;;11.00;99.90;;;;;;20840406;28;20089;-39
2022/09/16 06:19:25;;;;;;;1.15;0.28;;;11.00;99.90;;;;;;20826269;28;20124;-39
2022/09/16 06:29:26;;;;;;;0.60;0.20;;;11.10;99.90;;;;;;20843569;28;20045;-39
2022/09/16 06:39:27;;;;;;;6.97;3.22;;;11.20;99.90;;;;;;20840711;28;20111;-38
2022/09/16 06:49:28;;;;;;;3.72;1.38;;;11.50;99.90;;;;;;20852101;28;20033;-38
2022/09/16 06:59:29;;;;;;;2.70;0.52;;;11.50;99.90;;;;;;20829478;28;21446;-38
2022/09/16 07:09:31;;;;;;;0.43;0.20;;;11.50;99.90;;;;;;20804374;28;20606;-38
2022/09/16 07:19:32;;;;;;;0.93;0.65;;;11.40;99.90;;;;;;20823638;28;20033;-38
2022/09/16 07:29:33;;;;;;;0.95;0.20;;;11.50;99.90;;;;;;20863011;28;20506;-38
2022/09/16 07:39:34;;;;;;;1.50;0.45;;;11.70;99.90;;;;;;20875171;28;20048;-38
2022/09/16 07:49:35;;;;;;;0.82;0.30;;;11.90;99.90;;;;;;20863950;28;20029;-38
2022/09/16 07:59:36;;;;;;;0.63;0.10;;;12.50;99.90;;;;;;20863859;28;20043;-37
2022/09/16 08:09:37;;;;;;;1.20;0.40;;;11.80;99.90;;;;;;20862832;28;20102;-38
2022/09/16 08:19:39;;;;;;;0.32;0.05;;;11.30;99.90;;;;;;20864783;28;20040;-38
2022/09/16 08:29:40;;;;;;;0.10;0.03;;;11.20;99.90;;;;;;20863757;28;20061;-38
2022/09/16 08:39:41;;;;;;;1.20;0.70;;;11.50;99.90;;;;;;20873222;28;21288;-38
2022/09/16 08:49:44;;;;;;;0.85;0.30;;;11.90;99.90;;;;;;20871182;28;20036;-38
2022/09/16 08:59:51;;;;;;;1.17;0.30;;;12.10;99.90;;;;;;20869715;28;21931;-38
2022/09/16 09:10:01;;;;;;;0.60;0.20;;;12.20;99.90;;;;;;20873164;28;20053;-38
2022/09/16 09:20:10;;;;;;;0.10;0.00;;;11.80;99.90;;;;;;20865154;28;20509;-39
2022/09/16 09:30:22;;;;;;;0.90;0.17;;;12.10;99.90;;;;;;20870632;28;20057;-40
2022/09/16 09:40:35;;;;;;;0.40;0.13;;;12.20;99.90;;;;;;20857569;28;20175;-38
2022/09/16 09:50:41;;;;;;;0.85;0.40;;;12.70;99.90;;;;;;20880437;28;20563;-38
2022/09/16 10:00:42;;;;;;;0.47;0.20;;;12.90;99.90;;;;;;20894884;28;20056;-37
2022/09/16 10:10:49;;;;;;;0.40;0.30;;;13.30;99.90;;;;;;20895398;28;20903;-38
2022/09/16 10:21:03;;;;;;;0.57;0.03;;;13.00;99.90;;;;;;20877507;28;20446;-38
2022/09/16 10:31:06;;;;;;;0.20;0.00;;;12.30;99.90;;;;;;20857301;28;20025;-38
2022/09/16 10:41:14;;;;;;;0.17;0.00;;;12.20;99.90;;;;;;20873049;28;20110;-38
2022/09/16 10:51:32;;;;;;;8.15;0.28;;;12.30;99.90;;;;;;20872895;28;20091;-38
2022/09/16 11:02:11;;;;;;;0.52;0.17;;;12.80;99.90;;;;;;20862122;28;20049;-37
2022/09/16 11:12:34;;;;;;;0.80;0.30;;;13.80;99.90;;;;;;20854353;28;20094;-37
2022/09/16 11:22:41;;;;;;;1.45;0.47;;;13.70;99.90;;;;;;20850698;28;20111;-38
2022/09/16 11:32:57;;;;;;;1.03;0.20;;;12.70;99.90;;;;;;20852812;28;20496;-38
2022/09/16 11:43:26;;;;;;;1.17;0.20;;;12.30;99.90;;;;;;20858843;28;20351;-38
2022/09/16 11:53:39;;;;;;;3.78;0.60;;;12.30;99.90;;;;;;20856461;28;20049;-38
2022/09/16 12:04:01;;;;;;;0.82;0.08;;;13.40;99.90;;;;;;20866535;28;20354;-38
2022/09/16 12:14:23;;;;;;;2.33;0.80;;;14.70;99.90;;;;;;20876023;28;20879;-38
2022/09/16 12:24:36;;;;;;;2.38;0.75;;;15.30;99.90;;;;;;20870219;28;21082;-38
2022/09/16 12:34:48;;;;;;;1.33;0.43;;;15.70;99.90;;;;;;20871954;28;21009;-38
2022/09/16 12:45:15;;;;;;;0.70;0.28;;;14.80;99.90;;;;;;20874839;28;21594;-38
2022/09/16 12:55:49;;;;;;;3.75;0.43;;;13.70;99.90;;;;;;20875953;28;20435;-38
2022/09/16 13:05:53;;;;;;;1.58;0.75;;;13.40;99.90;;;;;;20874560;28;21220;-38
2022/09/16 13:15:57;;;;;;;2.50;0.77;;;13.50;99.90;;;;;;20872425;28;20107;-38
2022/09/16 13:25:59;;;;;;;6.55;1.75;;;14.70;99.90;;;;;;20867327;28;20110;-38
2022/09/16 13:36:19;;;;;;;1.40;0.45;;;16.10;99.90;;;;;;20863957;28;20032;-38
2022/09/16 13:46:27;;;;;;;1.08;0.30;;;16.60;99.90;;;;;;20848426;28;20041;-38
2022/09/16 13:56:40;;;;;;;1.52;0.40;;;15.20;99.90;;;;;;20869674;28;20455;-38
2022/09/16 14:07:05;;;;;;;2.65;0.77;;;15.00;99.90;;;;;;20866258;28;20546;-38
2022/09/16 14:17:18;;;;;;;1.02;0.30;;;16.30;99.90;;;;;;20866529;28;20341;-38
2022/09/16 14:27:36;;;;;;;1.20;0.28;;;16.20;99.90;;;;;;20850298;28;20068;-38
2022/09/16 14:37:38;;;;;;;1.20;0.43;;;16.50;99.90;;;;;;20850082;28;20106;-38
2022/09/16 14:47:39;;;;;;;1.40;0.52;;;16.10;99.90;;;;;;20853931;28;20473;-38
2022/09/16 14:57:40;;;;;;;2.63;0.50;;;15.40;99.90;;;;;;20854487;28;20083;-38
2022/09/16 15:07:43;;;;;;;3.03;0.68;;;15.40;99.90;;;;;;20856019;28;20646;-37
2022/09/16 15:17:52;;;;;;;1.13;0.32;;;16.10;99.90;;;;;;20840468;28;21033;-37
2022/09/16 15:28:06;;;;;;;2.78;0.30;;;15.70;99.90;;;;;;20829447;28;20560;-37
2022/09/16 15:38:11;;;;;;;1.08;0.40;;;15.70;99.90;;;;;;20865557;28;20037;-37
2022/09/16 15:48:17;;;;;;;0.50;0.20;;;16.00;99.90;;;;;;20865825;28;20134;-37
2022/09/16 15:58:33;;;;;;;0.45;0.20;;;16.00;99.90;;;;;;20864825;28;20065;-37
2022/09/16 16:08:51;;;;;;;1.33;0.63;;;15.80;99.90;;;;;;20841324;28;20135;-38
2022/09/16 16:18:52;;;;;;;;;;;15.40;99.90;;;;;;20835282;28;20762;-37
2022/09/16 16:28:53;;;;;;;3.25;1.50;;;14.80;99.90;;;;;;20875363;28;20641;-37
2022/09/16 16:38:54;;;;;;;4.38;1.10;;;14.60;99.90;;;;;;20894873;28;20040;-37
2022/09/16 16:48:55;;;;;;;1.45;0.50;;;14.90;99.90;;;;;;20898919;28;20550;-38
2022/09/16 16:58:56;;;;;;;1.38;0.35;;;14.50;99.90;;;;;;20904228;28;20274;-38
2022/09/16 17:08:57;;;;;;;3.05;0.90;;;14.10;99.90;;;;;;20882139;28;20029;-38
2022/09/16 17:19:00;;;;;;;3.80;1.40;;;14.00;99.90;;;;;;20889668;28;20052;-38
2022/09/16 17:29:02;;;;;;;4.13;0.52;;;14.00;99.90;;;;;;20881631;28;20036;-37
2022/09/16 17:39:06;;;;;;;1.85;0.45;;;14.10;99.90;;;;;;20874479;28;20036;-37
2022/09/16 17:49:15;;;;;;;1.75;0.20;;;13.70;99.90;;;;;;20870574;28;20083;-37
2022/09/16 17:59:17;;;;;;;9.75;0.73;;;13.50;99.90;;;;;;20832263;28;20560;-37
2022/09/16 18:09:18;;;;;;;2.00;0.93;;;13.40;99.90;;;;;;20829936;28;20125;-38
2022/09/16 18:19:19;;;;;;;4.78;1.13;;;13.50;99.90;;;;;;20826566;28;20179;-37
2022/09/16 18:29:20;;;;;;;1.40;0.75;;;13.10;99.90;;;;;;20837101;28;20124;-38
2022/09/16 18:39:21;;;;;;;2.00;0.73;;;12.50;99.90;;;;;;20863455;28;20033;-38
2022/09/16 18:49:25;;;;;;;0.35;0.20;;;12.20;99.90;;;;;;20854944;28;20048;-38
2022/09/16 18:59:29;;;;;;;1.08;0.32;;;12.20;99.90;;;;;;20856419;28;20589;-38
2022/09/16 19:09:30;;;;;;;2.55;0.82;;;12.00;99.90;;;;;;20820965;28;20049;-38
2022/09/16 19:19:32;;;;;;;1.70;0.45;;;12.30;99.90;;;;;;20793373;28;22054;-37
2022/09/16 19:29:33;;;;;;;2.03;0.73;;;12.20;99.90;;;;;;20812754;28;20041;-38
2022/09/16 19:39:35;;;;;;;3.00;0.95;;;12.10;99.90;;;;;;20837359;28;20037;-38
2022/09/16 19:49:36;;;;;;;3.17;0.50;;;12.30;99.90;;;;;;20832032;28;20094;-37
2022/09/16 19:59:37;;;;;;;0.70;0.30;;;12.40;99.90;;;;;;20836442;28;20511;-38
2022/09/16 20:09:38;;;;;;;2.42;0.85;;;12.40;99.90;;;;;;20821195;28;20618;-38
2022/09/16 20:19:39;;;;;;;1.60;0.30;;;12.30;99.90;;;;;;20818119;28;20044;-38
2022/09/16 20:29:40;;;;;;;1.30;0.40;;;12.20;99.90;;;;;;20844814;28;20056;-37
2022/09/16 20:39:41;;;;;;;5.97;0.85;;;12.10;99.90;;;;;;20836352;28;20064;-37
2022/09/16 20:49:42;;;;;;;1.42;0.57;;;11.80;99.90;;;;;;20830062;28;20045;-38
2022/09/16 20:59:44;;;;;;;1.30;0.40;;;11.80;99.90;;;;;;20827175;28;21667;-38
2022/09/16 21:09:46;;;;;;;5.25;0.57;;;11.80;99.90;;;;;;20833389;28;20191;-38
2022/09/16 21:19:49;;;;;;;1.05;0.40;;;11.90;99.90;;;;;;20822723;28;20137;-38
2022/09/16 21:29:50;;;;;;;2.53;1.10;;;11.90;99.90;;;;;;20836242;28;20468;-38
2022/09/16 21:39:51;;;;;;;3.13;1.55;;;11.80;99.90;;;;;;20865532;28;20110;-38
2022/09/16 21:49:52;;;;;;;3.38;0.90;;;11.80;99.90;;;;;;20853643;28;20151;-38
2022/09/16 21:59:53;;;;;;;1.73;0.75;;;12.00;99.90;;;;;;20851772;28;20199;-37
2022/09/16 22:09:54;;;;;;;8.13;0.88;;;12.00;99.90;;;;;;20838388;28;20045;-37
2022/09/16 22:19:55;;;;;;;2.15;0.73;;;11.90;99.90;;;;;;20833021;28;20188;-38
2022/09/16 22:29:56;;;;;;;2.22;0.60;;;11.80;99.90;;;;;;20844973;28;20872;-38
2022/09/16 22:39:57;;;;;;;4.60;1.10;;;11.80;99.90;;;;;;20837024;28;20415;-38
2022/09/16 22:49:58;;;;;;;5.82;1.30;;;11.80;99.90;;;;;;20845451;28;20511;-37
2022/09/16 23:00:01;;;;;;;2.90;0.77;;;11.90;99.90;;;;;;20845358;28;20118;-38
2022/09/16 23:10:02;;;;;;;4.35;1.35;;;11.90;99.90;;;;;;20838247;28;20153;-38
2022/09/16 23:20:03;;;;;;;4.63;0.45;;;12.00;99.90;;;;;;20837486;28;20179;-38
2022/09/16 23:30:05;;;;;;;3.08;1.02;;;11.90;99.90;;;;;;20848745;28;20166;-38
2022/09/16 23:40:07;;;;;;;5.05;0.50;;;11.80;99.90;;;;;;20840441;28;20175;-38
2022/09/16 23:50:10;;;;;;;2.67;1.15;;;11.80;99.90;;;;;;20847535;28;20124;-38
